KRDM

Roberts Field Airport

Redmond, Oregon, USA
METAR KRDM 141156Z AUTO 15006KT 10SM CLR 04/M05 A2994 RMK AO2 SLP140 T00441050 10061 20022 58019
Observed Flight Rules
Dec-14 @ 11:56 UTC (23 minutes ago) Visual Flight Rules
Wind Visibility Clouds
150° at 6 knots 10 miles
  • Clear skies
Temperatures Readings
Current 4°C / 39°F
Dewpoint -5°C / 23°F
Humidity 52%
Altimeter 29.94" Hg
Pressure 1014 hPa
Elevation 938
METAR KRDM 141156Z AUTO 15006KT 10SM CLR 04/M05 A2994 RMK AO2 SLP140 T00441050 10061 20022 58019
Observed Flight Rules
Dec-14 @ 11:56 UTC
(23 minutes ago)
VFR
Wind Visibility
150° at 6 knots 10 miles
Clouds
  • Clear skies
Temperature Dewpoint
4°C / 39°F -5°C / 23°F
Humidity Altimeter Pressure
52% 29.94" Hg 1014 hPa